sensor_id;sensor_type;location;lat;lon;timestamp;P1;durP1;ratioP1;P2;durP2;ratioP2
75548;SDS011;64133;56.002;37.208;2023-08-31T00:04:52;5.85;;;3.00;;
75548;SDS011;64133;56.002;37.208;2023-08-31T00:09:56;5.65;;;3.20;;
75548;SDS011;64133;56.002;37.208;2023-08-31T00:15:01;6.10;;;3.80;;
75548;SDS011;64133;56.002;37.208;2023-08-31T00:38:58;7.53;;;3.35;;
75548;SDS011;64133;56.002;37.208;2023-08-31T00:44:03;6.65;;;3.25;;
75548;SDS011;64133;56.002;37.208;2023-08-31T00:49:09;6.55;;;3.60;;
75548;SDS011;64133;56.002;37.208;2023-08-31T00:54:14;7.75;;;3.45;;
75548;SDS011;64133;56.002;37.208;2023-08-31T00:59:18;6.15;;;3.42;;
75548;SDS011;64133;56.002;37.208;2023-08-31T01:04:25;6.80;;;3.22;;
75548;SDS011;64133;56.002;37.208;2023-08-31T01:09:31;4.53;;;3.08;;
75548;SDS011;64133;56.002;37.208;2023-08-31T01:14:37;5.53;;;2.87;;
75548;SDS011;64133;56.002;37.208;2023-08-31T01:19:42;8.28;;;3.87;;
75548;SDS011;64133;56.002;37.208;2023-08-31T01:24:47;9.80;;;3.75;;
75548;SDS011;64133;56.002;37.208;2023-08-31T01:29:52;6.08;;;2.98;;
75548;SDS011;64133;56.002;37.208;2023-08-31T01:34:58;5.33;;;2.98;;
75548;SDS011;64133;56.002;37.208;2023-08-31T01:40:04;8.30;;;3.65;;
75548;SDS011;64133;56.002;37.208;2023-08-31T01:45:09;4.40;;;3.17;;
75548;SDS011;64133;56.002;37.208;2023-08-31T01:50:14;12.93;;;5.60;;
75548;SDS011;64133;56.002;37.208;2023-08-31T01:55:19;8.50;;;3.30;;
75548;SDS011;64133;56.002;37.208;2023-08-31T02:00:24;7.60;;;3.75;;
75548;SDS011;64133;56.002;37.208;2023-08-31T02:05:28;7.05;;;3.00;;
75548;SDS011;64133;56.002;37.208;2023-08-31T02:10:33;5.05;;;3.20;;
75548;SDS011;64133;56.002;37.208;2023-08-31T02:15:38;10.25;;;4.15;;
75548;SDS011;64133;56.002;37.208;2023-08-31T02:20:43;5.87;;;3.33;;
75548;SDS011;64133;56.002;37.208;2023-08-31T02:25:47;6.90;;;3.75;;
75548;SDS011;64133;56.002;37.208;2023-08-31T02:30:58;12.80;;;4.00;;
75548;SDS011;64133;56.002;37.208;2023-08-31T02:36:03;8.33;;;4.08;;
75548;SDS011;64133;56.002;37.208;2023-08-31T02:41:07;6.65;;;4.28;;
75548;SDS011;64133;56.002;37.208;2023-08-31T02:46:12;9.08;;;4.12;;
75548;SDS011;64133;56.002;37.208;2023-08-31T02:51:17;7.08;;;4.62;;
75548;SDS011;64133;56.002;37.208;2023-08-31T02:56:21;7.97;;;4.55;;
75548;SDS011;64133;56.002;37.208;2023-08-31T03:01:26;9.50;;;4.28;;
75548;SDS011;64133;56.002;37.208;2023-08-31T03:06:32;7.97;;;5.30;;
75548;SDS011;64133;56.002;37.208;2023-08-31T03:11:36;9.23;;;5.08;;
75548;SDS011;64133;56.002;37.208;2023-08-31T03:16:41;12.78;;;5.10;;
75548;SDS011;64133;56.002;37.208;2023-08-31T03:21:46;11.00;;;5.37;;
75548;SDS011;64133;56.002;37.208;2023-08-31T03:26:50;11.33;;;5.03;;
75548;SDS011;64133;56.002;37.208;2023-08-31T03:31:55;7.92;;;4.75;;
75548;SDS011;64133;56.002;37.208;2023-08-31T03:37:01;7.67;;;4.97;;
75548;SDS011;64133;56.002;37.208;2023-08-31T03:42:05;9.08;;;4.92;;
75548;SDS011;64133;56.002;37.208;2023-08-31T03:47:10;8.48;;;5.37;;
75548;SDS011;64133;56.002;37.208;2023-08-31T03:52:14;15.58;;;5.62;;
75548;SDS011;64133;56.002;37.208;2023-08-31T03:57:19;9.78;;;5.53;;
75548;SDS011;64133;56.002;37.208;2023-08-31T04:02:24;8.63;;;5.40;;
75548;SDS011;64133;56.002;37.208;2023-08-31T04:07:29;8.25;;;5.15;;
75548;SDS011;64133;56.002;37.208;2023-08-31T04:12:33;11.70;;;5.47;;
75548;SDS011;64133;56.002;37.208;2023-08-31T04:17:38;11.08;;;5.87;;
75548;SDS011;64133;56.002;37.208;2023-08-31T04:22:43;10.00;;;5.75;;
75548;SDS011;64133;56.002;37.208;2023-08-31T04:27:48;11.78;;;5.40;;
75548;SDS011;64133;56.002;37.208;2023-08-31T04:32:52;12.18;;;6.33;;
75548;SDS011;64133;56.002;37.208;2023-08-31T04:37:57;12.58;;;5.75;;
75548;SDS011;64133;56.002;37.208;2023-08-31T04:43:02;10.10;;;5.87;;
75548;SDS011;64133;56.002;37.208;2023-08-31T04:48:07;9.85;;;5.65;;
75548;SDS011;64133;56.002;37.208;2023-08-31T04:53:12;10.55;;;6.50;;
75548;SDS011;64133;56.002;37.208;2023-08-31T04:58:16;12.50;;;6.45;;
75548;SDS011;64133;56.002;37.208;2023-08-31T05:03:21;10.70;;;6.25;;
75548;SDS011;64133;56.002;37.208;2023-08-31T05:08:26;16.12;;;6.95;;
75548;SDS011;64133;56.002;37.208;2023-08-31T05:13:30;13.95;;;6.30;;
75548;SDS011;64133;56.002;37.208;2023-08-31T05:18:35;9.23;;;4.97;;
75548;SDS011;64133;56.002;37.208;2023-08-31T05:23:40;11.48;;;6.42;;
75548;SDS011;64133;56.002;37.208;2023-08-31T05:28:44;13.20;;;6.22;;
75548;SDS011;64133;56.002;37.208;2023-08-31T05:33:49;14.68;;;6.70;;
75548;SDS011;64133;56.002;37.208;2023-08-31T05:38:54;12.33;;;6.65;;
75548;SDS011;64133;56.002;37.208;2023-08-31T05:43:58;9.28;;;5.87;;
75548;SDS011;64133;56.002;37.208;2023-08-31T05:49:03;10.25;;;5.87;;
75548;SDS011;64133;56.002;37.208;2023-08-31T05:54:08;14.07;;;6.05;;
75548;SDS011;64133;56.002;37.208;2023-08-31T05:59:13;16.82;;;6.85;;
75548;SDS011;64133;56.002;37.208;2023-08-31T06:04:17;11.10;;;5.92;;
75548;SDS011;64133;56.002;37.208;2023-08-31T06:09:22;12.88;;;6.30;;
75548;SDS011;64133;56.002;37.208;2023-08-31T06:14:27;14.28;;;7.00;;
75548;SDS011;64133;56.002;37.208;2023-08-31T06:19:31;8.63;;;5.75;;
75548;SDS011;64133;56.002;37.208;2023-08-31T06:24:36;11.43;;;5.85;;
75548;SDS011;64133;56.002;37.208;2023-08-31T06:29:41;9.95;;;5.67;;
75548;SDS011;64133;56.002;37.208;2023-08-31T06:34:46;9.75;;;5.92;;
75548;SDS011;64133;56.002;37.208;2023-08-31T06:39:50;9.93;;;5.95;;
75548;SDS011;64133;56.002;37.208;2023-08-31T06:44:55;10.53;;;5.95;;
75548;SDS011;64133;56.002;37.208;2023-08-31T06:50:00;10.15;;;6.28;;
75548;SDS011;64133;56.002;37.208;2023-08-31T06:55:05;16.35;;;6.83;;
75548;SDS011;64133;56.002;37.208;2023-08-31T07:00:11;10.05;;;6.08;;
75548;SDS011;64133;56.002;37.208;2023-08-31T07:05:16;9.95;;;5.67;;
75548;SDS011;64133;56.002;37.208;2023-08-31T07:10:21;11.08;;;5.42;;
75548;SDS011;64133;56.002;37.208;2023-08-31T07:15:26;9.03;;;5.85;;
75548;SDS011;64133;56.002;37.208;2023-08-31T07:20:31;13.75;;;5.80;;
75548;SDS011;64133;56.002;37.208;2023-08-31T07:25:35;12.75;;;5.97;;
75548;SDS011;64133;56.002;37.208;2023-08-31T07:30:40;11.53;;;5.28;;
75548;SDS011;64133;56.002;37.208;2023-08-31T07:35:45;15.18;;;6.72;;
75548;SDS011;64133;56.002;37.208;2023-08-31T07:40:49;13.15;;;5.97;;
75548;SDS011;64133;56.002;37.208;2023-08-31T07:45:54;10.28;;;6.47;;
75548;SDS011;64133;56.002;37.208;2023-08-31T07:50:59;12.85;;;5.75;;
75548;SDS011;64133;56.002;37.208;2023-08-31T07:56:04;15.98;;;6.60;;
75548;SDS011;64133;56.002;37.208;2023-08-31T08:01:08;12.20;;;6.53;;
75548;SDS011;64133;56.002;37.208;2023-08-31T08:06:13;8.83;;;6.20;;
75548;SDS011;64133;56.002;37.208;2023-08-31T08:11:18;10.98;;;5.60;;
75548;SDS011;64133;56.002;37.208;2023-08-31T08:16:22;11.18;;;5.53;;
75548;SDS011;64133;56.002;37.208;2023-08-31T08:21:27;11.12;;;5.62;;
75548;SDS011;64133;56.002;37.208;2023-08-31T08:26:32;10.08;;;5.05;;
75548;SDS011;64133;56.002;37.208;2023-08-31T08:31:37;7.67;;;4.65;;
75548;SDS011;64133;56.002;37.208;2023-08-31T08:36:41;8.88;;;4.47;;
75548;SDS011;64133;56.002;37.208;2023-08-31T08:41:46;10.38;;;4.40;;
75548;SDS011;64133;56.002;37.208;2023-08-31T08:46:51;8.20;;;4.50;;
75548;SDS011;64133;56.002;37.208;2023-08-31T08:51:55;8.08;;;4.10;;
75548;SDS011;64133;56.002;37.208;2023-08-31T08:57:00;9.40;;;3.90;;
75548;SDS011;64133;56.002;37.208;2023-08-31T09:02:05;10.65;;;4.55;;
75548;SDS011;64133;56.002;37.208;2023-08-31T09:07:12;7.50;;;4.30;;
75548;SDS011;64133;56.002;37.208;2023-08-31T09:12:17;10.65;;;4.62;;
75548;SDS011;64133;56.002;37.208;2023-08-31T09:17:22;9.13;;;4.20;;
75548;SDS011;64133;56.002;37.208;2023-08-31T09:22:27;9.90;;;3.80;;
75548;SDS011;64133;56.002;37.208;2023-08-31T09:32:45;7.00;;;3.85;;
75548;SDS011;64133;56.002;37.208;2023-08-31T09:37:56;10.30;;;3.75;;
75548;SDS011;64133;56.002;37.208;2023-08-31T09:43:01;7.75;;;3.62;;
75548;SDS011;64133;56.002;37.208;2023-08-31T09:48:06;7.95;;;4.15;;
75548;SDS011;64133;56.002;37.208;2023-08-31T09:53:11;7.95;;;3.92;;
75548;SDS011;64133;56.002;37.208;2023-08-31T09:58:17;11.65;;;4.22;;
75548;SDS011;64133;56.002;37.208;2023-08-31T10:03:21;7.87;;;3.62;;
75548;SDS011;64133;56.002;37.208;2023-08-31T10:08:26;9.85;;;4.00;;
75548;SDS011;64133;56.002;37.208;2023-08-31T10:13:34;5.65;;;3.33;;
75548;SDS011;64133;56.002;37.208;2023-08-31T10:18:41;7.85;;;3.95;;
75548;SDS011;64133;56.002;37.208;2023-08-31T10:23:48;9.50;;;3.65;;
75548;SDS011;64133;56.002;37.208;2023-08-31T10:28:53;6.12;;;3.27;;
75548;SDS011;64133;56.002;37.208;2023-08-31T10:34:01;7.75;;;3.83;;
75548;SDS011;64133;56.002;37.208;2023-08-31T10:44:30;7.97;;;2.98;;
75548;SDS011;64133;56.002;37.208;2023-08-31T10:54:40;10.93;;;4.30;;
75548;SDS011;64133;56.002;37.208;2023-08-31T10:59:45;9.03;;;3.05;;
75548;SDS011;64133;56.002;37.208;2023-08-31T11:04:55;9.85;;;3.25;;
75548;SDS011;64133;56.002;37.208;2023-08-31T11:10:09;9.30;;;4.00;;
75548;SDS011;64133;56.002;37.208;2023-08-31T11:15:17;9.60;;;3.58;;
75548;SDS011;64133;56.002;37.208;2023-08-31T11:20:22;9.23;;;3.08;;
75548;SDS011;64133;56.002;37.208;2023-08-31T11:25:26;10.10;;;3.25;;
75548;SDS011;64133;56.002;37.208;2023-08-31T11:30:31;7.05;;;3.30;;
75548;SDS011;64133;56.002;37.208;2023-08-31T11:35:36;6.65;;;4.12;;
75548;SDS011;64133;56.002;37.208;2023-08-31T11:40:40;14.03;;;3.65;;
75548;SDS011;64133;56.002;37.208;2023-08-31T11:45:45;8.53;;;3.20;;
75548;SDS011;64133;56.002;37.208;2023-08-31T11:50:50;5.30;;;3.02;;
75548;SDS011;64133;56.002;37.208;2023-08-31T11:55:55;6.15;;;2.92;;
75548;SDS011;64133;56.002;37.208;2023-08-31T12:01:00;5.72;;;2.83;;
75548;SDS011;64133;56.002;37.208;2023-08-31T12:06:05;4.65;;;2.83;;
75548;SDS011;64133;56.002;37.208;2023-08-31T12:11:10;4.15;;;2.50;;
75548;SDS011;64133;56.002;37.208;2023-08-31T12:16:15;5.78;;;3.15;;
75548;SDS011;64133;56.002;37.208;2023-08-31T12:21:20;9.20;;;3.15;;
75548;SDS011;64133;56.002;37.208;2023-08-31T12:26:25;8.50;;;2.67;;
75548;SDS011;64133;56.002;37.208;2023-08-31T12:31:30;7.58;;;2.98;;
75548;SDS011;64133;56.002;37.208;2023-08-31T12:36:35;10.35;;;3.33;;
75548;SDS011;64133;56.002;37.208;2023-08-31T12:41:39;5.62;;;3.00;;
75548;SDS011;64133;56.002;37.208;2023-08-31T12:46:44;7.28;;;3.20;;
75548;SDS011;64133;56.002;37.208;2023-08-31T12:51:49;6.35;;;3.33;;
75548;SDS011;64133;56.002;37.208;2023-08-31T12:56:54;8.03;;;3.55;;
75548;SDS011;64133;56.002;37.208;2023-08-31T13:02:01;9.10;;;3.40;;
75548;SDS011;64133;56.002;37.208;2023-08-31T13:07:06;5.83;;;3.12;;
75548;SDS011;64133;56.002;37.208;2023-08-31T13:12:11;6.75;;;3.47;;
75548;SDS011;64133;56.002;37.208;2023-08-31T13:17:16;11.73;;;3.40;;
75548;SDS011;64133;56.002;37.208;2023-08-31T13:22:21;9.35;;;3.50;;
75548;SDS011;64133;56.002;37.208;2023-08-31T13:27:25;8.78;;;3.00;;
75548;SDS011;64133;56.002;37.208;2023-08-31T13:32:30;6.25;;;3.00;;
75548;SDS011;64133;56.002;37.208;2023-08-31T13:37:35;10.45;;;3.25;;
75548;SDS011;64133;56.002;37.208;2023-08-31T13:42:48;11.57;;;3.60;;
75548;SDS011;64133;56.002;37.208;2023-08-31T13:47:52;7.30;;;3.00;;
75548;SDS011;64133;56.002;37.208;2023-08-31T13:52:57;4.90;;;2.90;;
75548;SDS011;64133;56.002;37.208;2023-08-31T13:58:04;4.87;;;2.80;;
75548;SDS011;64133;56.002;37.208;2023-08-31T14:03:09;5.53;;;3.08;;
75548;SDS011;64133;56.002;37.208;2023-08-31T14:08:14;7.42;;;3.30;;
75548;SDS011;64133;56.002;37.208;2023-08-31T14:13:19;6.50;;;2.62;;
75548;SDS011;64133;56.002;37.208;2023-08-31T14:18:25;7.97;;;3.05;;
75548;SDS011;64133;56.002;37.208;2023-08-31T14:23:33;10.30;;;3.87;;
75548;SDS011;64133;56.002;37.208;2023-08-31T14:28:38;9.75;;;3.30;;
75548;SDS011;64133;56.002;37.208;2023-08-31T14:33:42;10.38;;;3.92;;
75548;SDS011;64133;56.002;37.208;2023-08-31T14:38:47;8.38;;;4.00;;
75548;SDS011;64133;56.002;37.208;2023-08-31T14:43:55;10.90;;;4.47;;
75548;SDS011;64133;56.002;37.208;2023-08-31T14:49:00;7.22;;;4.00;;
75548;SDS011;64133;56.002;37.208;2023-08-31T14:54:07;8.15;;;4.12;;
75548;SDS011;64133;56.002;37.208;2023-08-31T14:59:12;7.15;;;4.55;;
75548;SDS011;64133;56.002;37.208;2023-08-31T15:04:20;7.28;;;4.10;;
75548;SDS011;64133;56.002;37.208;2023-08-31T15:14:38;6.55;;;3.85;;
75548;SDS011;64133;56.002;37.208;2023-08-31T15:19:43;7.60;;;4.08;;
75548;SDS011;64133;56.002;37.208;2023-08-31T15:24:53;30.40;;;18.07;;
75548;SDS011;64133;56.002;37.208;2023-08-31T15:30:00;14.68;;;8.03;;
75548;SDS011;64133;56.002;37.208;2023-08-31T15:35:07;9.33;;;5.40;;
75548;SDS011;64133;56.002;37.208;2023-08-31T15:40:12;12.53;;;4.90;;
75548;SDS011;64133;56.002;37.208;2023-08-31T15:45:17;7.53;;;4.40;;
75548;SDS011;64133;56.002;37.208;2023-08-31T15:50:22;10.10;;;4.58;;
75548;SDS011;64133;56.002;37.208;2023-08-31T15:55:29;12.85;;;4.15;;
75548;SDS011;64133;56.002;37.208;2023-08-31T16:00:33;6.50;;;3.65;;
75548;SDS011;64133;56.002;37.208;2023-08-31T16:05:38;9.03;;;3.75;;
75548;SDS011;64133;56.002;37.208;2023-08-31T16:10:43;9.15;;;4.12;;
75548;SDS011;64133;56.002;37.208;2023-08-31T16:15:48;9.78;;;4.85;;
75548;SDS011;64133;56.002;37.208;2023-08-31T16:20:52;15.10;;;6.12;;
75548;SDS011;64133;56.002;37.208;2023-08-31T16:25:57;17.60;;;5.75;;
75548;SDS011;64133;56.002;37.208;2023-08-31T16:31:02;8.48;;;4.47;;
75548;SDS011;64133;56.002;37.208;2023-08-31T16:36:06;12.88;;;4.35;;
75548;SDS011;64133;56.002;37.208;2023-08-31T16:41:13;19.40;;;4.70;;
75548;SDS011;64133;56.002;37.208;2023-08-31T16:46:16;10.20;;;4.40;;
75548;SDS011;64133;56.002;37.208;2023-08-31T16:51:21;13.38;;;4.70;;
75548;SDS011;64133;56.002;37.208;2023-08-31T16:56:26;11.18;;;5.03;;
75548;SDS011;64133;56.002;37.208;2023-08-31T17:01:30;10.95;;;6.03;;
75548;SDS011;64133;56.002;37.208;2023-08-31T17:06:35;13.40;;;5.78;;
75548;SDS011;64133;56.002;37.208;2023-08-31T17:11:40;14.10;;;5.58;;
75548;SDS011;64133;56.002;37.208;2023-08-31T17:16:47;13.20;;;4.58;;
75548;SDS011;64133;56.002;37.208;2023-08-31T17:21:56;10.53;;;4.20;;
75548;SDS011;64133;56.002;37.208;2023-08-31T17:27:01;15.83;;;5.00;;
75548;SDS011;64133;56.002;37.208;2023-08-31T17:32:06;9.78;;;4.45;;
75548;SDS011;64133;56.002;37.208;2023-08-31T17:37:11;15.80;;;4.53;;
75548;SDS011;64133;56.002;37.208;2023-08-31T17:42:18;8.25;;;4.72;;
75548;SDS011;64133;56.002;37.208;2023-08-31T17:47:23;10.88;;;5.25;;
75548;SDS011;64133;56.002;37.208;2023-08-31T17:52:27;9.58;;;4.70;;
75548;SDS011;64133;56.002;37.208;2023-08-31T17:57:32;13.15;;;5.37;;
75548;SDS011;64133;56.002;37.208;2023-08-31T18:02:37;17.15;;;4.58;;
75548;SDS011;64133;56.002;37.208;2023-08-31T18:07:42;10.25;;;4.78;;
75548;SDS011;64133;56.002;37.208;2023-08-31T18:12:46;13.50;;;5.08;;
75548;SDS011;64133;56.002;37.208;2023-08-31T18:17:51;10.80;;;4.95;;
75548;SDS011;64133;56.002;37.208;2023-08-31T18:22:56;10.25;;;4.97;;
75548;SDS011;64133;56.002;37.208;2023-08-31T18:28:01;10.88;;;4.25;;
75548;SDS011;64133;56.002;37.208;2023-08-31T18:33:06;11.35;;;4.70;;
75548;SDS011;64133;56.002;37.208;2023-08-31T18:38:10;15.35;;;5.10;;
75548;SDS011;64133;56.002;37.208;2023-08-31T18:43:15;13.43;;;5.95;;
75548;SDS011;64133;56.002;37.208;2023-08-31T18:48:20;12.00;;;4.75;;
75548;SDS011;64133;56.002;37.208;2023-08-31T18:53:24;18.02;;;5.28;;
75548;SDS011;64133;56.002;37.208;2023-08-31T18:58:29;10.75;;;5.03;;
75548;SDS011;64133;56.002;37.208;2023-08-31T19:03:34;10.95;;;4.55;;
75548;SDS011;64133;56.002;37.208;2023-08-31T19:08:39;12.18;;;5.37;;
75548;SDS011;64133;56.002;37.208;2023-08-31T19:13:44;13.48;;;6.03;;
75548;SDS011;64133;56.002;37.208;2023-08-31T19:18:49;9.38;;;4.62;;
75548;SDS011;64133;56.002;37.208;2023-08-31T19:23:54;8.80;;;4.80;;
75548;SDS011;64133;56.002;37.208;2023-08-31T19:28:58;15.05;;;6.30;;
75548;SDS011;64133;56.002;37.208;2023-08-31T19:34:03;13.88;;;5.28;;
75548;SDS011;64133;56.002;37.208;2023-08-31T19:39:08;11.97;;;5.25;;
75548;SDS011;64133;56.002;37.208;2023-08-31T19:44:13;8.75;;;4.78;;
75548;SDS011;64133;56.002;37.208;2023-08-31T19:49:17;14.43;;;4.75;;
75548;SDS011;64133;56.002;37.208;2023-08-31T19:54:22;9.65;;;5.12;;
75548;SDS011;64133;56.002;37.208;2023-08-31T19:59:27;10.18;;;5.17;;
75548;SDS011;64133;56.002;37.208;2023-08-31T20:04:32;15.23;;;5.20;;
75548;SDS011;64133;56.002;37.208;2023-08-31T20:09:36;13.40;;;5.10;;
75548;SDS011;64133;56.002;37.208;2023-08-31T20:14:41;14.87;;;4.75;;
75548;SDS011;64133;56.002;37.208;2023-08-31T20:19:46;12.80;;;5.75;;
75548;SDS011;64133;56.002;37.208;2023-08-31T20:24:50;16.37;;;7.05;;
75548;SDS011;64133;56.002;37.208;2023-08-31T20:29:55;15.80;;;5.60;;
75548;SDS011;64133;56.002;37.208;2023-08-31T20:35:00;12.47;;;5.55;;
75548;SDS011;64133;56.002;37.208;2023-08-31T20:40:06;13.53;;;5.20;;
75548;SDS011;64133;56.002;37.208;2023-08-31T20:45:11;13.00;;;5.53;;
75548;SDS011;64133;56.002;37.208;2023-08-31T20:50:17;10.50;;;4.55;;
75548;SDS011;64133;56.002;37.208;2023-08-31T20:55:23;16.20;;;5.72;;
75548;SDS011;64133;56.002;37.208;2023-08-31T21:00:27;10.30;;;5.22;;
75548;SDS011;64133;56.002;37.208;2023-08-31T21:05:32;16.25;;;5.17;;
75548;SDS011;64133;56.002;37.208;2023-08-31T21:10:37;9.78;;;6.05;;
75548;SDS011;64133;56.002;37.208;2023-08-31T21:15:41;12.33;;;5.45;;
75548;SDS011;64133;56.002;37.208;2023-08-31T21:20:46;8.83;;;4.72;;
75548;SDS011;64133;56.002;37.208;2023-08-31T21:25:51;9.70;;;5.10;;
75548;SDS011;64133;56.002;37.208;2023-08-31T21:30:55;8.90;;;5.15;;
75548;SDS011;64133;56.002;37.208;2023-08-31T21:36:00;10.63;;;5.58;;
75548;SDS011;64133;56.002;37.208;2023-08-31T21:41:05;11.28;;;5.72;;
75548;SDS011;64133;56.002;37.208;2023-08-31T21:46:11;13.18;;;4.97;;
75548;SDS011;64133;56.002;37.208;2023-08-31T21:51:15;11.90;;;5.78;;
75548;SDS011;64133;56.002;37.208;2023-08-31T21:56:19;10.95;;;5.28;;
75548;SDS011;64133;56.002;37.208;2023-08-31T22:01:24;10.70;;;5.75;;
75548;SDS011;64133;56.002;37.208;2023-08-31T22:06:29;11.40;;;5.30;;
75548;SDS011;64133;56.002;37.208;2023-08-31T22:11:36;12.05;;;5.17;;
75548;SDS011;64133;56.002;37.208;2023-08-31T22:16:40;18.90;;;7.17;;
75548;SDS011;64133;56.002;37.208;2023-08-31T22:21:46;13.78;;;6.05;;
75548;SDS011;64133;56.002;37.208;2023-08-31T22:26:50;10.00;;;5.33;;
75548;SDS011;64133;56.002;37.208;2023-08-31T22:31:55;11.75;;;5.28;;
75548;SDS011;64133;56.002;37.208;2023-08-31T22:37:00;9.30;;;5.22;;
75548;SDS011;64133;56.002;37.208;2023-08-31T22:42:06;9.80;;;5.37;;
75548;SDS011;64133;56.002;37.208;2023-08-31T22:47:10;11.95;;;5.92;;
75548;SDS011;64133;56.002;37.208;2023-08-31T22:52:15;14.33;;;6.92;;
75548;SDS011;64133;56.002;37.208;2023-08-31T22:57:19;12.07;;;5.47;;
75548;SDS011;64133;56.002;37.208;2023-08-31T23:02:24;11.83;;;5.58;;
75548;SDS011;64133;56.002;37.208;2023-08-31T23:07:29;18.27;;;6.37;;
75548;SDS011;64133;56.002;37.208;2023-08-31T23:12:34;18.32;;;5.90;;
75548;SDS011;64133;56.002;37.208;2023-08-31T23:17:38;11.73;;;5.35;;
75548;SDS011;64133;56.002;37.208;2023-08-31T23:22:45;13.22;;;6.33;;
75548;SDS011;64133;56.002;37.208;2023-08-31T23:27:48;12.75;;;5.70;;
75548;SDS011;64133;56.002;37.208;2023-08-31T23:32:53;9.53;;;5.03;;
75548;SDS011;64133;56.002;37.208;2023-08-31T23:37:58;13.40;;;6.42;;
75548;SDS011;64133;56.002;37.208;2023-08-31T23:43:02;17.27;;;5.92;;
75548;SDS011;64133;56.002;37.208;2023-08-31T23:48:07;12.50;;;6.22;;
75548;SDS011;64133;56.002;37.208;2023-08-31T23:53:12;10.32;;;5.53;;
75548;SDS011;64133;56.002;37.208;2023-08-31T23:58:16;11.78;;;5.62;;
